createdAt,value
2022-09-17T00:01:03.129Z,6.50
2022-09-17T00:03:29.770Z,6.47
2022-09-17T00:06:04.479Z,6.30
2022-09-17T00:08:31.073Z,5.25
2022-09-17T00:10:57.676Z,6.03
2022-09-17T00:13:24.340Z,5.60
2022-09-17T00:15:52.517Z,5.78
2022-09-17T00:18:19.190Z,6.10
2022-09-17T00:20:46.525Z,6.32
2022-09-17T00:23:13.423Z,6.80
2022-09-17T00:25:41.009Z,7.05
2022-09-17T00:28:07.795Z,8.45
2022-09-17T00:30:48.589Z,7.80
2022-09-17T00:33:16.268Z,7.07
2022-09-17T00:35:43.273Z,7.45
2022-09-17T00:38:10.113Z,7.35
2022-09-17T00:40:37.116Z,7.70
2022-09-17T00:43:04.117Z,8.32
2022-09-17T00:45:32.172Z,7.30
2022-09-17T00:48:00.721Z,7.15
2022-09-17T00:50:35.194Z,5.95
2022-09-17T00:53:06.912Z,6.18
2022-09-17T00:55:48.768Z,7.00
2022-09-17T00:58:15.780Z,7.43
2022-09-17T01:00:42.618Z,8.90
2022-09-17T01:03:09.338Z,15.10
2022-09-17T01:05:46.024Z,14.93
2022-09-17T01:08:36.227Z,11.45
2022-09-17T01:11:10.538Z,7.18
2022-09-17T01:13:43.523Z,9.60
2022-09-17T01:16:13.835Z,9.63
2022-09-17T01:18:43.299Z,9.75
2022-09-17T01:21:30.347Z,9.85
2022-09-17T01:24:38.477Z,8.77
2022-09-17T01:27:31.566Z,8.35
2022-09-17T01:30:04.346Z,7.70
2022-09-17T01:32:52.955Z,7.78
2022-09-17T01:35:30.136Z,11.55
2022-09-17T01:38:02.685Z,10.77
2022-09-17T01:40:39.540Z,9.18
2022-09-17T01:43:13.463Z,8.00
2022-09-17T01:45:52.678Z,7.57
2022-09-17T01:48:20.601Z,8.15
2022-09-17T01:50:52.790Z,9.52
2022-09-17T01:53:21.690Z,8.18
2022-09-17T01:55:49.236Z,7.22
2022-09-17T01:58:23.205Z,9.88
2022-09-17T02:00:56.155Z,25.40
2022-09-17T02:03:42.641Z,15.15
2022-09-17T02:06:15.307Z,7.82
2022-09-17T02:08:55.244Z,7.03
2022-09-17T02:11:21.838Z,6.18
2022-09-17T02:13:51.551Z,6.40
2022-09-17T02:16:19.827Z,6.05
2022-09-17T02:18:50.712Z,7.35
2022-09-17T02:21:38.644Z,8.00
2022-09-17T02:24:22.669Z,11.68
2022-09-17T02:27:11.843Z,11.60
2022-09-17T02:29:40.215Z,9.70
2022-09-17T02:32:06.982Z,11.80
2022-09-17T02:34:34.640Z,10.07
2022-09-17T02:37:01.404Z,6.57
2022-09-17T02:39:28.062Z,7.63
2022-09-17T02:42:33.756Z,7.57
2022-09-17T02:45:07.508Z,8.00
2022-09-17T02:47:52.943Z,7.25
2022-09-17T02:53:24.299Z,7.72
2022-09-17T02:55:57.855Z,8.63
2022-09-17T02:58:39.267Z,10.68
2022-09-17T03:01:09.102Z,14.57
2022-09-17T03:03:38.106Z,10.55
2022-09-17T03:06:05.112Z,8.02
2022-09-17T03:08:37.219Z,8.13
2022-09-17T03:11:05.500Z,9.60
2022-09-17T03:13:32.206Z,11.18
2022-09-17T03:15:58.803Z,9.20
2022-09-17T03:18:25.440Z,8.70
2022-09-17T03:20:51.994Z,7.60
2022-09-17T03:23:18.566Z,7.78
2022-09-17T03:25:46.315Z,10.13
2022-09-17T03:28:12.950Z,6.72
2022-09-17T03:30:39.576Z,6.22
2022-09-17T03:33:06.213Z,5.65
2022-09-17T03:35:32.926Z,5.95
2022-09-17T03:37:59.492Z,5.20
2022-09-17T03:40:26.210Z,6.50
2022-09-17T03:42:52.824Z,7.75
2022-09-17T03:45:19.402Z,10.57
2022-09-17T03:47:46.048Z,8.55
2022-09-17T03:50:12.595Z,7.72
2022-09-17T03:52:39.195Z,6.30
2022-09-17T03:55:06.288Z,5.68
2022-09-17T03:57:32.839Z,4.85
2022-09-17T03:59:59.648Z,4.57
2022-09-17T04:02:26.350Z,5.13
2022-09-17T04:04:54.481Z,4.97
2022-09-17T04:07:21.063Z,5.50
2022-09-17T04:09:47.663Z,5.30
2022-09-17T04:12:14.277Z,4.70
2022-09-17T04:14:41.009Z,4.82
2022-09-17T04:17:07.578Z,4.47
2022-09-17T04:19:34.140Z,4.47
2022-09-17T04:22:00.692Z,4.97
2022-09-17T04:24:27.331Z,3.72
2022-09-17T04:26:53.879Z,5.38
2022-09-17T04:29:20.501Z,4.55
2022-09-17T04:31:47.113Z,3.78
2022-09-17T04:34:13.772Z,3.72
2022-09-17T04:36:40.342Z,4.30
2022-09-17T04:39:07.085Z,4.43
2022-09-17T04:41:33.647Z,3.60
2022-09-17T04:44:00.235Z,3.80
2022-09-17T04:46:26.840Z,4.70
2022-09-17T04:48:53.459Z,5.70
2022-09-17T04:51:20.033Z,4.57
2022-09-17T04:53:46.714Z,3.58
2022-09-17T04:56:13.272Z,4.13
2022-09-17T04:58:39.917Z,3.97
2022-09-17T05:01:06.554Z,5.13
2022-09-17T05:03:33.139Z,4.07
2022-09-17T05:05:59.949Z,3.88
2022-09-17T05:08:26.620Z,4.30
2022-09-17T05:10:53.294Z,3.97
2022-09-17T05:13:19.855Z,3.92
2022-09-17T05:15:46.506Z,4.10
2022-09-17T05:18:13.397Z,3.70
2022-09-17T05:20:40.124Z,3.28
2022-09-17T05:23:06.742Z,3.53
2022-09-17T05:25:33.297Z,3.97
2022-09-17T05:28:01.316Z,4.20
2022-09-17T05:30:27.911Z,4.07
2022-09-17T05:33:05.720Z,3.85
2022-09-17T05:35:32.561Z,4.43
2022-09-17T05:38:00.498Z,3.80
2022-09-17T05:40:28.116Z,5.43
2022-09-17T05:43:01.824Z,8.25
2022-09-17T05:45:28.798Z,6.38
2022-09-17T05:47:59.289Z,7.60
2022-09-17T05:50:25.977Z,9.55
2022-09-17T05:52:52.791Z,10.82
2022-09-17T05:55:20.118Z,8.55
2022-09-17T05:57:46.762Z,7.72
2022-09-17T06:00:13.767Z,6.13
2022-09-17T06:02:40.389Z,5.70
2022-09-17T06:05:07.246Z,5.57
2022-09-17T06:07:37.492Z,4.97
2022-09-17T06:10:05.274Z,5.40
2022-09-17T06:12:32.268Z,5.28
2022-09-17T06:14:58.833Z,4.75
2022-09-17T06:17:25.880Z,4.28
2022-09-17T06:19:52.523Z,5.20
2022-09-17T06:22:20.533Z,4.80
2022-09-17T06:24:47.316Z,4.85
2022-09-17T06:27:13.949Z,4.90
2022-09-17T06:29:40.956Z,4.20
2022-09-17T06:32:11.009Z,5.43
2022-09-17T06:34:37.623Z,5.38
2022-09-17T06:37:04.185Z,4.90
2022-09-17T06:39:30.793Z,5.85
2022-09-17T06:41:57.489Z,5.50
2022-09-17T06:44:24.078Z,4.82
2022-09-17T06:46:51.322Z,5.10
2022-09-17T06:49:18.929Z,4.85
2022-09-17T06:51:45.541Z,5.63
2022-09-17T06:54:12.535Z,4.55
2022-09-17T06:56:39.191Z,4.80
2022-09-17T06:59:05.771Z,4.75
2022-09-17T07:01:33.086Z,5.45
2022-09-17T07:04:00.002Z,5.55
2022-09-17T07:06:26.739Z,4.80
2022-09-17T07:08:53.382Z,5.05
2022-09-17T07:11:20.046Z,5.05
2022-09-17T07:13:46.640Z,5.32
2022-09-17T07:16:13.311Z,5.28
2022-09-17T07:18:40.255Z,5.40
2022-09-17T07:21:06.917Z,5.13
2022-09-17T07:23:35.078Z,6.05
2022-09-17T07:26:05.845Z,11.02
2022-09-17T07:28:32.535Z,11.50
2022-09-17T07:30:59.149Z,5.95
2022-09-17T07:33:27.770Z,5.05
2022-09-17T07:35:55.414Z,5.00
2022-09-17T07:38:22.777Z,5.00
2022-09-17T07:41:05.234Z,5.15
2022-09-17T07:43:33.391Z,6.13
2022-09-17T07:46:00.721Z,5.32
2022-09-17T07:48:28.227Z,6.05
2022-09-17T07:50:55.109Z,4.35
2022-09-17T07:53:22.670Z,5.00
2022-09-17T07:56:11.694Z,4.90
2022-09-17T07:58:38.713Z,6.97
2022-09-17T08:01:09.784Z,6.53
2022-09-17T08:03:36.858Z,4.35
2022-09-17T08:06:05.303Z,4.22
2022-09-17T08:08:33.614Z,4.25
2022-09-17T08:11:04.734Z,4.22
2022-09-17T08:13:31.380Z,4.57
2022-09-17T08:16:01.827Z,3.92
2022-09-17T08:18:28.711Z,3.97
2022-09-17T08:21:02.854Z,4.22
2022-09-17T08:23:29.827Z,4.13
2022-09-17T08:26:00.341Z,4.03
2022-09-17T08:28:28.203Z,4.07
2022-09-17T08:30:55.011Z,3.42
2022-09-17T08:33:21.687Z,4.20
2022-09-17T08:35:54.864Z,3.30
2022-09-17T08:38:21.847Z,3.83
2022-09-17T08:41:07.215Z,4.18
2022-09-17T08:46:09.319Z,3.50
2022-09-17T08:48:41.531Z,3.83
2022-09-17T08:51:40.191Z,3.70
2022-09-17T08:54:36.011Z,3.20
2022-09-17T08:59:43.714Z,3.13
2022-09-17T09:02:27.443Z,3.45
2022-09-17T09:05:15.697Z,3.15
2022-09-17T09:07:48.417Z,3.38
2022-09-17T09:10:25.934Z,2.90
2022-09-17T09:12:53.104Z,2.60
2022-09-17T09:15:26.695Z,2.75
2022-09-17T09:17:53.317Z,3.25
2022-09-17T09:20:30.126Z,2.63
2022-09-17T09:22:57.375Z,2.53
2022-09-17T09:25:27.024Z,2.80
2022-09-17T09:28:02.337Z,2.20
2022-09-17T09:30:58.029Z,2.22
2022-09-17T09:36:02.623Z,2.38
2022-09-17T09:38:35.789Z,2.50
2022-09-17T09:41:26.715Z,2.53
2022-09-17T09:44:04.013Z,2.28
2022-09-17T09:46:52.451Z,2.28
2022-09-17T09:49:40.187Z,2.45
2022-09-17T09:52:25.699Z,2.15
2022-09-17T09:55:14.532Z,2.20
2022-09-17T09:57:48.604Z,1.90
2022-09-17T10:00:39.724Z,1.77
2022-09-17T10:03:32.234Z,2.20
2022-09-17T10:06:06.426Z,1.92
2022-09-17T10:08:34.516Z,2.38
2022-09-17T10:11:06.224Z,2.60
2022-09-17T10:13:36.767Z,2.20
2022-09-17T10:16:24.533Z,2.03
2022-09-17T10:19:03.798Z,2.03
2022-09-17T10:21:37.862Z,3.40
2022-09-17T10:24:38.225Z,2.10
2022-09-17T10:27:13.366Z,2.03
2022-09-17T10:29:47.292Z,2.00
2022-09-17T10:32:18.071Z,2.20
2022-09-17T10:35:06.111Z,2.00
2022-09-17T10:37:45.578Z,2.40
2022-09-17T10:40:18.793Z,1.90
2022-09-17T10:42:49.609Z,2.05
2022-09-17T10:45:26.870Z,2.35
2022-09-17T10:47:53.466Z,1.80
2022-09-17T10:50:21.607Z,1.70
2022-09-17T10:52:49.807Z,2.05
2022-09-17T10:55:34.242Z,2.10
2022-09-17T10:58:09.853Z,2.27
2022-09-17T11:01:05.575Z,2.30
2022-09-17T11:06:51.832Z,2.10
2022-09-17T11:09:52.448Z,2.35
2022-09-17T11:12:42.181Z,1.90
2022-09-17T11:15:27.067Z,2.38
2022-09-17T11:18:12.726Z,2.05
2022-09-17T11:20:45.249Z,2.08
2022-09-17T11:23:36.095Z,1.90
2022-09-17T11:26:23.972Z,2.75
2022-09-17T11:29:15.278Z,2.10
2022-09-17T11:31:47.926Z,2.20
2022-09-17T11:34:50.005Z,2.15
2022-09-17T11:37:24.570Z,1.80
2022-09-17T11:39:57.703Z,2.30
2022-09-17T11:42:31.022Z,1.70
2022-09-17T11:45:02.504Z,2.10
2022-09-17T11:47:40.628Z,2.20
2022-09-17T11:50:39.523Z,1.75
2022-09-17T11:53:06.145Z,1.90
2022-09-17T11:55:35.917Z,1.50
2022-09-17T11:58:15.927Z,1.50
2022-09-17T12:01:07.159Z,1.55
2022-09-17T12:03:36.627Z,1.40
2022-09-17T12:06:08.560Z,1.40
2022-09-17T12:08:56.770Z,1.20
2022-09-17T12:11:27.499Z,1.40
2022-09-17T12:14:31.332Z,1.38
2022-09-17T12:16:58.869Z,1.27
2022-09-17T12:19:37.885Z,1.20
2022-09-17T12:22:15.701Z,1.73
2022-09-17T12:24:43.207Z,1.27
2022-09-17T12:27:13.663Z,1.50
2022-09-17T12:30:00.600Z,1.48
2022-09-17T12:32:33.537Z,1.30
2022-09-17T12:35:10.999Z,1.35
2022-09-17T12:37:51.183Z,1.40
2022-09-17T12:40:50.020Z,1.48
2022-09-17T12:43:47.440Z,1.58
2022-09-17T12:46:32.760Z,1.30
2022-09-17T12:51:48.886Z,1.40
2022-09-17T12:54:24.526Z,1.40
2022-09-17T12:57:12.817Z,1.60
2022-09-17T12:59:48.200Z,1.50
2022-09-17T13:02:34.759Z,1.38
2022-09-17T13:05:07.406Z,1.40
2022-09-17T13:07:46.176Z,1.30
2022-09-17T13:10:30.009Z,1.10
2022-09-17T13:13:19.691Z,1.20
2022-09-17T13:16:05.971Z,1.50
2022-09-17T13:18:41.695Z,1.48
2022-09-17T13:21:20.169Z,1.83
2022-09-17T13:24:19.716Z,1.50
2022-09-17T13:26:46.401Z,1.40
2022-09-17T13:29:14.575Z,1.50
2022-09-17T13:31:53.570Z,1.70
2022-09-17T13:34:20.341Z,1.60
2022-09-17T13:36:51.462Z,1.45
2022-09-17T13:39:38.671Z,1.67
2022-09-17T13:42:11.099Z,1.73
2022-09-17T13:44:40.350Z,1.60
2022-09-17T13:47:27.649Z,1.67
2022-09-17T13:50:00.012Z,1.60
2022-09-17T13:53:01.931Z,1.50
2022-09-17T13:55:48.260Z,1.77
2022-09-17T13:58:20.842Z,1.50
2022-09-17T14:00:51.263Z,1.95
2022-09-17T14:03:44.372Z,1.90
2022-09-17T14:06:11.288Z,2.05
2022-09-17T14:08:43.837Z,1.58
2022-09-17T14:11:36.747Z,1.80
2022-09-17T14:14:03.235Z,1.67
2022-09-17T14:16:35.429Z,1.63
2022-09-17T14:19:22.352Z,1.40
2022-09-17T14:21:53.338Z,1.40
2022-09-17T14:24:38.206Z,1.70
2022-09-17T14:27:45.264Z,1.50
2022-09-17T14:30:29.473Z,1.70
2022-09-17T14:33:01.806Z,1.42
2022-09-17T14:35:45.592Z,3.53
2022-09-17T14:38:16.504Z,3.75
2022-09-17T14:41:12.225Z,2.58
2022-09-17T14:46:23.224Z,1.50
2022-09-17T14:48:50.586Z,1.48
2022-09-17T14:51:20.185Z,2.40
2022-09-17T14:54:06.627Z,1.50
2022-09-17T14:56:34.484Z,1.70
2022-09-17T14:59:01.323Z,1.80
2022-09-17T15:01:31.071Z,1.75
2022-09-17T15:04:10.865Z,1.55
2022-09-17T15:06:37.448Z,1.58
2022-09-17T15:09:04.009Z,1.83
2022-09-17T15:11:31.616Z,1.92
2022-09-17T15:13:59.158Z,1.60
2022-09-17T15:16:26.598Z,1.92
2022-09-17T15:18:57.963Z,1.73
2022-09-17T15:21:51.084Z,2.13
2022-09-17T15:24:42.034Z,2.10
2022-09-17T15:27:33.316Z,1.90
2022-09-17T15:30:09.432Z,2.00
2022-09-17T15:32:36.067Z,2.20
2022-09-17T15:35:12.103Z,2.35
2022-09-17T15:38:11.901Z,1.92
2022-09-17T15:40:41.468Z,2.15
2022-09-17T15:43:16.910Z,2.53
2022-09-17T15:45:43.477Z,2.50
2022-09-17T15:48:34.250Z,2.90
2022-09-17T15:51:01.746Z,2.90
2022-09-17T15:53:32.691Z,3.60
2022-09-17T15:56:16.639Z,3.40
2022-09-17T15:58:46.129Z,2.70
2022-09-17T16:01:15.624Z,2.20
2022-09-17T16:03:43.425Z,2.80
2022-09-17T16:06:19.120Z,2.58
2022-09-17T16:08:49.763Z,2.08
2022-09-17T16:11:26.616Z,2.60
2022-09-17T16:13:54.291Z,2.10
2022-09-17T16:16:22.364Z,2.50
2022-09-17T16:18:49.890Z,2.40
2022-09-17T16:21:18.140Z,4.78
2022-09-17T16:23:44.992Z,7.22
2022-09-17T16:26:17.094Z,4.45
2022-09-17T16:28:43.864Z,3.55
2022-09-17T16:31:12.830Z,4.68
2022-09-17T16:33:39.510Z,3.72
2022-09-17T16:36:06.202Z,4.43
2022-09-17T16:38:32.915Z,3.97
2022-09-17T16:40:59.568Z,3.70
2022-09-17T16:43:26.215Z,4.00
2022-09-17T16:46:19.211Z,4.15
2022-09-17T16:48:47.844Z,4.78
2022-09-17T16:51:14.534Z,4.00
2022-09-17T16:53:41.177Z,3.50
2022-09-17T16:56:11.632Z,3.08
2022-09-17T16:58:38.848Z,2.83
2022-09-17T17:01:12.901Z,2.70
2022-09-17T17:03:39.739Z,3.60
2022-09-17T17:06:06.754Z,4.70
2022-09-17T17:08:33.873Z,4.45
2022-09-17T17:11:01.056Z,3.00
2022-09-17T17:13:30.564Z,3.58
2022-09-17T17:15:57.479Z,3.30
2022-09-17T17:18:24.754Z,2.88
2022-09-17T17:20:51.576Z,2.95
2022-09-17T17:23:18.202Z,3.95
2022-09-17T17:25:44.961Z,3.28
2022-09-17T17:28:11.584Z,4.22
2022-09-17T17:30:38.586Z,3.42
2022-09-17T17:33:05.491Z,3.60
2022-09-17T17:35:32.232Z,3.75
2022-09-17T17:37:58.882Z,4.95
2022-09-17T17:40:26.944Z,4.15
2022-09-17T17:42:53.721Z,4.93
2022-09-17T17:45:20.401Z,4.90
2022-09-17T17:47:47.035Z,3.92
2022-09-17T17:50:13.652Z,4.47
2022-09-17T17:52:43.525Z,4.28
2022-09-17T17:55:10.430Z,4.30
2022-09-17T17:57:37.048Z,4.07
2022-09-17T18:00:04.324Z,4.00
2022-09-17T18:02:31.048Z,3.75
2022-09-17T18:05:02.058Z,3.88
2022-09-17T18:07:30.753Z,3.45
2022-09-17T18:09:58.738Z,4.18
2022-09-17T18:12:27.129Z,5.60
2022-09-17T18:14:53.884Z,4.65
2022-09-17T18:17:20.519Z,4.00
2022-09-17T18:19:47.110Z,3.85
2022-09-17T18:22:14.273Z,3.97
2022-09-17T18:24:40.845Z,4.00
2022-09-17T18:27:07.418Z,4.30
2022-09-17T18:29:34.111Z,4.30
2022-09-17T18:32:00.760Z,4.10
2022-09-17T18:34:27.385Z,4.78
2022-09-17T18:36:53.998Z,4.78
2022-09-17T18:42:08.561Z,4.60
2022-09-17T18:44:35.161Z,4.43
2022-09-17T18:47:01.853Z,4.60
2022-09-17T18:49:28.524Z,4.03
2022-09-17T18:51:55.094Z,3.65
2022-09-17T18:54:21.694Z,4.07
2022-09-17T18:56:48.312Z,4.35
2022-09-17T18:59:14.894Z,4.35
2022-09-17T19:01:41.663Z,4.20
2022-09-17T19:04:08.458Z,4.40
2022-09-17T19:06:35.175Z,4.90
2022-09-17T19:09:02.336Z,4.63
2022-09-17T19:11:29.166Z,4.32
2022-09-17T19:13:55.932Z,4.60
2022-09-17T19:16:22.697Z,4.60
2022-09-17T19:18:49.637Z,4.70
2022-09-17T19:21:18.481Z,4.28
2022-09-17T19:23:49.271Z,4.15
2022-09-17T19:26:26.455Z,4.40
2022-09-17T19:28:57.900Z,3.83
2022-09-17T19:31:24.786Z,4.30
2022-09-17T19:34:09.829Z,5.07
2022-09-17T19:36:36.537Z,3.63
2022-09-17T19:39:03.296Z,3.20
2022-09-17T19:41:33.321Z,3.42
2022-09-17T19:43:59.947Z,3.72
2022-09-17T19:46:26.605Z,3.92
2022-09-17T19:48:54.861Z,2.80
2022-09-17T19:51:23.116Z,2.50
2022-09-17T19:53:49.915Z,3.00
2022-09-17T19:56:17.876Z,2.40
2022-09-17T19:58:44.509Z,3.00
2022-09-17T20:01:11.281Z,2.30
2022-09-17T20:03:39.158Z,2.15
2022-09-17T20:06:07.094Z,2.33
2022-09-17T20:08:36.831Z,2.70
2022-09-17T20:11:07.386Z,2.35
2022-09-17T20:13:33.980Z,2.33
2022-09-17T20:16:17.929Z,2.53
2022-09-17T20:18:44.557Z,2.20
2022-09-17T20:21:15.386Z,2.45
2022-09-17T20:23:42.096Z,2.67
2022-09-17T20:26:08.923Z,2.20
2022-09-17T20:28:36.671Z,2.30
2022-09-17T20:31:18.724Z,2.55
2022-09-17T20:33:45.509Z,2.70
2022-09-17T20:36:13.812Z,2.40
2022-09-17T20:41:31.549Z,2.00
2022-09-17T20:43:58.425Z,1.95
2022-09-17T20:46:29.001Z,2.20
2022-09-17T20:48:57.534Z,2.20
2022-09-17T20:51:30.262Z,2.20
2022-09-17T20:53:58.091Z,2.20
2022-09-17T20:56:29.231Z,2.28
2022-09-17T20:59:03.460Z,2.42
2022-09-17T21:01:36.855Z,2.35
2022-09-17T21:04:05.186Z,1.75
2022-09-17T21:06:33.738Z,2.05
2022-09-17T21:09:00.475Z,2.20
2022-09-17T21:11:27.187Z,2.50
2022-09-17T21:13:53.755Z,2.72
2022-09-17T21:16:21.013Z,2.45
2022-09-17T21:18:47.904Z,2.17
2022-09-17T21:21:16.236Z,2.45
2022-09-17T21:23:43.018Z,2.40
2022-09-17T21:26:14.160Z,2.47
2022-09-17T21:28:41.426Z,2.40
2022-09-17T21:31:12.031Z,3.35
2022-09-17T21:33:39.009Z,2.00
2022-09-17T21:36:06.280Z,2.47
2022-09-17T21:38:33.077Z,2.95
2022-09-17T21:41:00.733Z,2.50
2022-09-17T21:43:43.775Z,2.30
2022-09-17T21:46:15.717Z,2.03
2022-09-17T21:48:46.846Z,2.38
2022-09-17T21:51:17.725Z,1.92
2022-09-17T21:53:44.573Z,2.10
2022-09-17T21:56:15.353Z,1.98
2022-09-17T21:58:42.630Z,1.75
2022-09-17T22:01:11.611Z,2.20
2022-09-17T22:03:38.235Z,1.90
2022-09-17T22:06:28.016Z,2.13
2022-09-17T22:08:54.837Z,1.80
2022-09-17T22:11:25.811Z,2.08
2022-09-17T22:13:57.126Z,2.90
2022-09-17T22:16:24.425Z,2.47
2022-09-17T22:18:51.419Z,2.35
2022-09-17T22:21:22.557Z,2.30
2022-09-17T22:23:53.150Z,2.97
2022-09-17T22:26:21.161Z,2.10
2022-09-17T22:28:48.569Z,2.50
2022-09-17T22:31:35.430Z,2.85
2022-09-17T22:34:02.072Z,2.60
2022-09-17T22:36:28.803Z,2.80
2022-09-17T22:38:56.966Z,3.30
2022-09-17T22:41:26.318Z,3.75
2022-09-17T22:43:53.926Z,3.47
2022-09-17T22:46:22.049Z,3.83
2022-09-17T22:48:48.698Z,4.03
2022-09-17T22:51:15.377Z,3.40
2022-09-17T22:53:42.155Z,4.40
2022-09-17T22:56:11.081Z,4.13
2022-09-17T22:58:37.735Z,5.80
2022-09-17T23:01:06.667Z,4.95
2022-09-17T23:03:33.480Z,4.30
2022-09-17T23:06:05.078Z,5.28
2022-09-17T23:08:32.185Z,5.35
2022-09-17T23:10:59.805Z,4.65
2022-09-17T23:13:27.107Z,5.78
2022-09-17T23:15:53.715Z,5.90
2022-09-17T23:18:20.291Z,6.45
2022-09-17T23:20:57.399Z,5.75
2022-09-17T23:23:24.826Z,6.63
2022-09-17T23:25:51.390Z,6.32
2022-09-17T23:28:18.219Z,7.55
2022-09-17T23:30:44.899Z,7.55
2022-09-17T23:33:13.666Z,7.57
2022-09-17T23:35:40.478Z,6.82
2022-09-17T23:38:07.114Z,7.68
2022-09-17T23:40:34.326Z,8.25
2022-09-17T23:43:00.972Z,8.30
2022-09-17T23:45:27.600Z,8.65
2022-09-17T23:47:54.162Z,8.90
2022-09-17T23:50:20.774Z,8.48
2022-09-17T23:52:47.345Z,8.40
2022-09-17T23:55:14.273Z,8.48
2022-09-17T23:57:40.832Z,8.95
